createdAt,value
2023-04-19T00:03:26.325Z,4.90
2023-04-19T00:05:54.354Z,5.05
2023-04-19T00:08:21.594Z,4.82
2023-04-19T00:10:48.137Z,5.07
2023-04-19T00:13:14.767Z,4.20
2023-04-19T00:15:42.702Z,4.80
2023-04-19T00:18:09.498Z,4.82
2023-04-19T00:20:36.299Z,4.65
2023-04-19T00:23:03.710Z,3.97
2023-04-19T00:25:31.974Z,4.20
2023-04-19T00:27:58.669Z,4.45
2023-04-19T00:30:25.216Z,4.55
2023-04-19T00:32:53.229Z,4.45
2023-04-19T00:35:20.294Z,4.72
2023-04-19T00:37:46.857Z,4.10
2023-04-19T00:40:13.590Z,4.43
2023-04-19T00:42:40.188Z,4.20
2023-04-19T00:45:07.935Z,4.75
2023-04-19T00:47:35.118Z,5.80
2023-04-19T00:50:04.595Z,4.78
2023-04-19T00:52:32.991Z,5.57
2023-04-19T00:55:00.129Z,4.65
2023-04-19T00:57:27.113Z,4.82
2023-04-19T00:59:55.425Z,5.47
2023-04-19T01:02:22.216Z,4.63
2023-04-19T01:04:49.097Z,3.85
2023-04-19T01:07:18.029Z,4.60
2023-04-19T01:09:45.249Z,4.20
2023-04-19T01:12:11.923Z,4.43
2023-04-19T01:14:40.254Z,4.63
2023-04-19T01:17:07.462Z,4.65
2023-04-19T01:19:34.915Z,4.50
2023-04-19T01:22:02.997Z,4.40
2023-04-19T01:24:31.240Z,4.25
2023-04-19T01:26:58.038Z,4.53
2023-04-19T01:29:24.676Z,4.10
2023-04-19T01:31:53.751Z,3.95
2023-04-19T01:34:20.807Z,5.43
2023-04-19T01:36:47.508Z,4.40
2023-04-19T01:39:14.123Z,6.68
2023-04-19T01:41:42.074Z,5.85
2023-04-19T01:44:08.707Z,4.90
2023-04-19T01:46:36.555Z,4.63
2023-04-19T01:49:03.283Z,3.95
2023-04-19T01:51:29.906Z,6.32
2023-04-19T01:53:58.102Z,4.95
2023-04-19T01:56:24.902Z,4.25
2023-04-19T01:58:52.845Z,5.03
2023-04-19T02:01:19.561Z,3.45
2023-04-19T02:03:46.662Z,3.85
2023-04-19T02:06:14.241Z,4.25
2023-04-19T02:08:41.967Z,5.00
2023-04-19T02:11:09.076Z,4.07
2023-04-19T02:13:36.202Z,4.32
2023-04-19T02:16:05.934Z,4.57
2023-04-19T02:18:32.774Z,4.00
2023-04-19T02:20:59.534Z,3.63
2023-04-19T02:23:26.232Z,4.63
2023-04-19T02:25:53.436Z,3.63
2023-04-19T02:28:20.075Z,4.95
2023-04-19T02:30:46.770Z,4.03
2023-04-19T02:33:15.115Z,4.05
2023-04-19T02:35:41.788Z,4.15
2023-04-19T02:38:08.378Z,3.70
2023-04-19T02:40:35.060Z,4.20
2023-04-19T02:43:01.642Z,4.50
2023-04-19T02:45:28.394Z,4.00
2023-04-19T02:47:55.226Z,4.78
2023-04-19T02:50:23.255Z,5.10
2023-04-19T02:52:49.893Z,5.50
2023-04-19T02:55:16.606Z,4.32
2023-04-19T02:57:43.181Z,4.43
2023-04-19T03:00:10.743Z,3.45
2023-04-19T03:02:38.004Z,3.13
2023-04-19T03:05:06.547Z,4.13
2023-04-19T03:07:34.513Z,4.28
2023-04-19T03:10:01.057Z,3.67
2023-04-19T03:12:27.666Z,4.22
2023-04-19T03:14:54.750Z,3.90
2023-04-19T03:17:21.335Z,3.45
2023-04-19T03:19:47.915Z,4.35
2023-04-19T03:22:14.519Z,4.55
2023-04-19T03:24:42.564Z,4.45
2023-04-19T03:27:09.214Z,4.00
2023-04-19T03:29:35.808Z,3.95
2023-04-19T03:32:02.393Z,3.47
2023-04-19T03:34:29.019Z,4.15
2023-04-19T03:36:55.903Z,4.57
2023-04-19T03:39:22.557Z,3.75
2023-04-19T03:41:50.854Z,3.15
2023-04-19T03:44:17.685Z,3.70
2023-04-19T03:46:46.450Z,4.15
2023-04-19T03:49:13.250Z,4.10
2023-04-19T03:51:39.870Z,3.77
2023-04-19T03:54:06.475Z,3.70
2023-04-19T03:56:33.137Z,3.47
2023-04-19T03:59:01.110Z,3.67
2023-04-19T04:01:28.131Z,3.88
2023-04-19T04:03:54.848Z,3.10
2023-04-19T04:06:21.567Z,4.30
2023-04-19T04:08:48.210Z,3.55
2023-04-19T04:11:15.131Z,3.70
2023-04-19T04:13:43.120Z,3.80
2023-04-19T04:16:11.111Z,3.70
2023-04-19T04:18:38.647Z,4.05
2023-04-19T04:21:05.357Z,4.03
2023-04-19T04:23:33.754Z,4.60
2023-04-19T04:26:01.531Z,3.87
2023-04-19T04:28:28.261Z,4.50
2023-04-19T04:30:57.367Z,4.25
2023-04-19T04:33:26.782Z,3.92
2023-04-19T04:35:54.153Z,3.47
2023-04-19T04:38:24.589Z,3.90
2023-04-19T04:40:54.768Z,3.10
2023-04-19T04:43:22.560Z,3.58
2023-04-19T04:45:49.336Z,4.13
2023-04-19T04:48:16.180Z,3.40
2023-04-19T04:50:44.266Z,4.30
2023-04-19T04:53:13.168Z,3.78
2023-04-19T04:55:39.956Z,4.22
2023-04-19T04:58:06.913Z,3.28
2023-04-19T05:00:34.476Z,3.13
2023-04-19T05:03:02.852Z,3.60
2023-04-19T05:05:30.132Z,3.77
2023-04-19T05:07:58.039Z,3.73
2023-04-19T05:10:24.640Z,3.37
2023-04-19T05:12:51.299Z,4.27
2023-04-19T05:15:17.930Z,6.90
2023-04-19T05:17:44.573Z,10.68
2023-04-19T05:20:12.124Z,7.60
2023-04-19T05:22:38.725Z,8.10
2023-04-19T05:25:08.092Z,13.10
2023-04-19T05:27:34.657Z,14.48
2023-04-19T05:30:01.262Z,9.50
2023-04-19T05:32:29.808Z,5.70
2023-04-19T05:34:56.466Z,5.07
2023-04-19T05:37:24.190Z,7.20
2023-04-19T05:39:50.926Z,6.87
2023-04-19T05:42:18.999Z,3.87
2023-04-19T05:44:45.681Z,3.67
2023-04-19T05:47:12.274Z,3.93
2023-04-19T05:49:39.602Z,5.13
2023-04-19T05:52:06.971Z,6.20
2023-04-19T05:54:36.226Z,7.35
2023-04-19T05:57:03.287Z,4.38
2023-04-19T05:59:31.411Z,4.60
2023-04-19T06:01:58.279Z,4.30
2023-04-19T06:04:25.309Z,5.07
2023-04-19T06:06:52.322Z,5.80
2023-04-19T06:09:19.076Z,5.53
2023-04-19T06:11:50.756Z,6.97
2023-04-19T06:14:19.040Z,6.63
2023-04-19T06:16:47.345Z,6.63
2023-04-19T06:19:14.014Z,6.27
2023-04-19T06:21:40.836Z,7.83
2023-04-19T06:24:08.012Z,9.23
2023-04-19T06:26:34.834Z,6.10
2023-04-19T06:29:01.528Z,7.03
2023-04-19T06:31:28.453Z,5.00
2023-04-19T06:33:56.437Z,6.10
2023-04-19T06:36:23.249Z,6.40
2023-04-19T06:38:50.411Z,5.60
2023-04-19T06:41:17.760Z,9.30
2023-04-19T06:43:44.972Z,9.03
2023-04-19T06:46:13.946Z,8.43
2023-04-19T06:48:40.865Z,8.27
2023-04-19T06:51:09.410Z,10.13
2023-04-19T06:53:36.461Z,8.53
2023-04-19T06:56:04.882Z,8.77
2023-04-19T06:58:34.531Z,7.80
2023-04-19T07:01:03.152Z,9.50
2023-04-19T07:03:30.018Z,9.93
2023-04-19T07:05:57.140Z,10.53
2023-04-19T07:08:32.272Z,11.60
2023-04-19T07:11:05.650Z,8.03
2023-04-19T07:13:32.282Z,7.30
2023-04-19T07:15:59.006Z,7.90
2023-04-19T07:18:25.788Z,7.50
2023-04-19T07:20:52.378Z,10.80
2023-04-19T07:23:19.734Z,10.40
2023-04-19T07:25:47.737Z,10.50
2023-04-19T07:28:16.036Z,10.37
2023-04-19T07:30:45.982Z,13.03
2023-04-19T07:33:15.065Z,12.20
2023-04-19T07:35:42.061Z,12.65
2023-04-19T07:38:08.765Z,11.33
2023-04-19T07:40:35.706Z,18.17
2023-04-19T07:43:03.721Z,19.43
2023-04-19T07:45:30.903Z,15.67
2023-04-19T07:47:57.726Z,14.87
2023-04-19T07:50:26.079Z,20.10
2023-04-19T07:52:52.828Z,21.10
2023-04-19T07:55:19.673Z,19.10
2023-04-19T07:57:48.290Z,21.40
2023-04-19T08:00:17.318Z,17.87
2023-04-19T08:02:45.180Z,18.85
2023-04-19T08:05:12.947Z,16.60
2023-04-19T08:07:39.977Z,19.83
2023-04-19T08:10:07.845Z,17.10
2023-04-19T08:12:39.313Z,18.77
2023-04-19T08:15:29.720Z,13.13
2023-04-19T08:17:58.089Z,18.57
2023-04-19T08:20:25.228Z,17.10
2023-04-19T08:22:51.900Z,15.17
2023-04-19T08:25:18.664Z,23.13
2023-04-19T08:27:45.313Z,21.30
2023-04-19T08:30:12.426Z,15.67
2023-04-19T08:32:39.099Z,19.03
2023-04-19T08:35:08.406Z,17.40
2023-04-19T08:37:35.395Z,14.85
2023-04-19T08:40:02.100Z,14.87
2023-04-19T08:42:36.244Z,15.57
2023-04-19T08:47:51.862Z,14.60
2023-04-19T08:50:33.295Z,16.07
2023-04-19T08:55:32.640Z,12.47
2023-04-19T08:57:59.575Z,14.13
2023-04-19T09:00:26.364Z,15.60
2023-04-19T09:02:55.940Z,14.13
2023-04-19T09:07:51.693Z,18.27
2023-04-19T09:10:20.552Z,12.30
2023-04-19T09:13:01.897Z,15.90
2023-04-19T09:15:39.269Z,14.93
2023-04-19T09:18:07.859Z,13.40
2023-04-19T09:20:38.327Z,16.08
2023-04-19T09:23:09.499Z,14.93
2023-04-19T09:25:55.091Z,18.57
2023-04-19T09:28:24.036Z,14.97
2023-04-19T09:33:33.396Z,15.63
2023-04-19T09:36:01.005Z,13.65
2023-04-19T09:38:29.187Z,16.60
2023-04-19T09:41:07.728Z,15.03
2023-04-19T09:46:04.394Z,10.43
2023-04-19T09:48:31.105Z,9.80
2023-04-19T09:51:04.561Z,11.20
2023-04-19T09:53:37.988Z,12.87
2023-04-19T09:56:06.189Z,12.33
2023-04-19T10:03:44.542Z,13.73
2023-04-19T10:09:02.754Z,14.70
2023-04-19T10:11:33.792Z,12.53
2023-04-19T10:14:01.735Z,13.97
2023-04-19T10:16:30.624Z,14.43
2023-04-19T10:18:58.328Z,10.55
2023-04-19T10:21:27.709Z,15.10
2023-04-19T10:23:54.768Z,12.90
2023-04-19T10:26:22.777Z,13.97
2023-04-19T10:28:49.425Z,13.17
2023-04-19T10:31:21.535Z,13.53
2023-04-19T10:33:48.837Z,10.50
2023-04-19T10:36:17.814Z,11.63
2023-04-19T10:38:49.281Z,11.75
2023-04-19T10:41:18.513Z,18.53
2023-04-19T10:46:16.979Z,16.40
2023-04-19T10:48:54.960Z,19.05
2023-04-19T10:51:23.943Z,21.53
2023-04-19T10:53:53.538Z,17.33
2023-04-19T10:56:22.669Z,16.25
2023-04-19T10:59:22.141Z,17.83
2023-04-19T11:01:51.937Z,12.23
2023-04-19T11:04:20.333Z,13.13
2023-04-19T11:07:10.826Z,10.10
2023-04-19T11:09:39.464Z,14.70
2023-04-19T11:12:10.827Z,14.50
2023-04-19T11:14:41.380Z,14.83
2023-04-19T11:17:18.856Z,16.60
2023-04-19T11:19:52.645Z,12.97
2023-04-19T11:22:24.153Z,10.50
2023-04-19T11:24:50.824Z,14.63
2023-04-19T11:27:18.040Z,14.73
2023-04-19T11:29:46.097Z,15.80
2023-04-19T11:32:12.815Z,14.10
2023-04-19T11:34:41.005Z,19.20
2023-04-19T11:37:10.896Z,12.00
2023-04-19T11:39:46.321Z,10.97
2023-04-19T11:42:18.354Z,16.47
2023-04-19T11:44:50.782Z,12.27
2023-04-19T11:47:17.889Z,12.77
2023-04-19T11:49:44.773Z,11.70
2023-04-19T11:52:11.455Z,15.00
2023-04-19T11:54:38.314Z,11.40
2023-04-19T11:57:06.564Z,11.93
2023-04-19T11:59:35.252Z,12.40
2023-04-19T12:02:07.792Z,10.30
2023-04-19T12:04:35.258Z,12.10
2023-04-19T12:07:03.364Z,13.83
2023-04-19T12:09:30.137Z,11.90
2023-04-19T12:11:58.355Z,11.93
2023-04-19T12:14:26.676Z,10.73
2023-04-19T12:17:09.274Z,13.13
2023-04-19T12:19:37.293Z,12.40
2023-04-19T12:22:15.287Z,11.33
2023-04-19T12:24:42.638Z,12.57
2023-04-19T12:27:10.902Z,13.27
2023-04-19T12:29:38.353Z,15.17
2023-04-19T12:32:07.490Z,14.50
2023-04-19T12:34:34.146Z,15.63
2023-04-19T12:37:00.969Z,17.40
2023-04-19T12:39:28.714Z,15.37
2023-04-19T12:41:55.765Z,14.27
2023-04-19T12:44:22.523Z,16.23
2023-04-19T12:46:49.299Z,11.07
2023-04-19T12:49:20.086Z,11.47
2023-04-19T12:51:47.558Z,17.00
2023-04-19T12:54:14.532Z,16.17
2023-04-19T12:56:41.521Z,17.67
2023-04-19T12:59:08.187Z,15.37
2023-04-19T13:01:34.913Z,18.87
2023-04-19T13:04:01.867Z,10.43
2023-04-19T13:06:30.072Z,15.73
2023-04-19T13:09:00.459Z,17.83
2023-04-19T13:11:28.020Z,17.90
2023-04-19T13:13:54.655Z,19.20
2023-04-19T13:16:22.436Z,18.47
2023-04-19T13:18:49.426Z,19.63
2023-04-19T13:21:16.093Z,11.03
2023-04-19T13:23:45.075Z,16.83
2023-04-19T13:26:11.955Z,21.77
2023-04-19T13:28:39.751Z,17.93
2023-04-19T13:31:06.465Z,19.70
2023-04-19T13:33:33.242Z,14.07
2023-04-19T13:36:00.123Z,16.47
2023-04-19T13:38:26.830Z,11.23
2023-04-19T13:40:54.802Z,9.70
2023-04-19T13:43:21.787Z,11.30
2023-04-19T13:45:48.459Z,14.13
2023-04-19T13:48:15.134Z,12.17
2023-04-19T13:50:41.784Z,15.13
2023-04-19T13:53:08.502Z,22.23
2023-04-19T13:55:35.377Z,15.00
2023-04-19T13:58:03.510Z,16.63
2023-04-19T14:00:30.336Z,18.10
2023-04-19T14:02:57.375Z,12.67
2023-04-19T14:05:24.153Z,17.93
2023-04-19T14:07:50.931Z,13.73
2023-04-19T14:10:17.847Z,19.03
2023-04-19T14:12:45.084Z,11.27
2023-04-19T14:15:13.570Z,11.03
2023-04-19T14:17:40.413Z,26.83
2023-04-19T14:20:07.920Z,17.57
2023-04-19T14:22:35.420Z,18.20
2023-04-19T14:25:02.488Z,17.20
2023-04-19T14:27:29.220Z,19.53
2023-04-19T14:29:55.915Z,16.97
2023-04-19T14:32:27.499Z,17.17
2023-04-19T14:34:54.833Z,17.50
2023-04-19T14:37:23.251Z,21.67
2023-04-19T14:39:49.923Z,22.63
2023-04-19T14:42:16.536Z,21.93
2023-04-19T14:44:43.852Z,21.70
2023-04-19T14:47:10.986Z,17.30
2023-04-19T14:49:38.998Z,16.50
2023-04-19T14:52:06.042Z,15.07
2023-04-19T14:54:32.764Z,17.50
2023-04-19T14:56:59.397Z,17.23
2023-04-19T14:59:27.661Z,16.83
2023-04-19T15:01:56.238Z,11.83
2023-04-19T15:04:23.368Z,14.57
2023-04-19T15:06:51.637Z,13.73
2023-04-19T15:09:18.613Z,9.20
2023-04-19T15:11:45.508Z,11.83
2023-04-19T15:14:12.174Z,12.60
2023-04-19T15:16:38.922Z,10.63
2023-04-19T15:19:07.372Z,13.07
2023-04-19T15:21:34.293Z,10.03
2023-04-19T15:24:02.286Z,15.77
2023-04-19T15:26:28.869Z,14.67
2023-04-19T15:28:56.449Z,7.90
2023-04-19T15:31:25.078Z,11.47
2023-04-19T15:33:53.518Z,6.67
2023-04-19T15:36:20.185Z,10.23
2023-04-19T15:38:46.815Z,9.57
2023-04-19T15:41:14.866Z,8.87
2023-04-19T15:43:41.489Z,8.07
2023-04-19T15:46:11.847Z,9.83
2023-04-19T15:48:38.544Z,8.47
2023-04-19T15:51:05.754Z,10.67
2023-04-19T15:53:32.309Z,15.53
2023-04-19T15:55:58.944Z,8.40
2023-04-19T15:58:26.914Z,7.50
2023-04-19T16:00:53.550Z,6.83
2023-04-19T16:03:25.571Z,9.83
2023-04-19T16:05:52.254Z,9.57
2023-04-19T16:08:19.800Z,9.33
2023-04-19T16:10:47.143Z,8.73
2023-04-19T16:13:14.058Z,7.00
2023-04-19T16:15:42.440Z,7.93
2023-04-19T16:18:09.868Z,7.87
2023-04-19T16:20:37.235Z,5.27
2023-04-19T16:23:04.193Z,8.13
2023-04-19T16:25:31.438Z,1.73
2023-04-19T16:27:58.397Z,1.47
2023-04-19T16:30:26.810Z,0.70
2023-04-19T16:32:56.619Z,0.40
2023-04-19T16:35:23.922Z,3.27
2023-04-19T16:37:51.070Z,2.40
2023-04-19T16:40:17.954Z,6.20
2023-04-19T16:42:44.587Z,2.10
2023-04-19T16:45:11.394Z,1.43
2023-04-19T16:47:38.106Z,1.23
2023-04-19T16:50:07.202Z,6.20
2023-04-19T16:52:35.673Z,4.82
2023-04-19T16:55:04.327Z,6.30
2023-04-19T16:57:31.966Z,6.27
2023-04-19T16:59:58.730Z,4.17
2023-04-19T17:02:25.606Z,5.13
2023-04-19T17:04:52.918Z,1.53
2023-04-19T17:07:21.331Z,0.30
2023-04-19T17:09:48.049Z,0.63
2023-04-19T17:12:14.712Z,1.70
2023-04-19T17:14:41.453Z,0.80
2023-04-19T17:17:08.147Z,0.87
2023-04-19T17:19:35.023Z,1.47
2023-04-19T17:22:05.456Z,1.57
2023-04-19T17:24:34.281Z,0.60
2023-04-19T17:27:01.242Z,1.17
2023-04-19T17:29:28.097Z,0.40
2023-04-19T17:31:56.089Z,0.83
2023-04-19T17:34:23.357Z,0.70
2023-04-19T17:36:49.947Z,2.10
2023-04-19T17:39:16.910Z,1.30
2023-04-19T17:41:45.343Z,1.03
2023-04-19T17:44:12.555Z,0.50
2023-04-19T17:46:40.588Z,1.97
2023-04-19T17:49:08.712Z,0.57
2023-04-19T17:51:35.475Z,2.67
2023-04-19T17:54:02.136Z,3.07
2023-04-19T17:56:28.938Z,0.47
2023-04-19T17:58:57.504Z,3.10
2023-04-19T18:01:24.145Z,2.80
2023-04-19T18:03:51.146Z,3.33
2023-04-19T18:06:20.690Z,2.83
2023-04-19T18:08:47.369Z,2.85
2023-04-19T18:11:13.994Z,1.47
2023-04-19T18:13:40.684Z,3.07
2023-04-19T18:16:09.445Z,0.97
2023-04-19T18:18:36.047Z,2.88
2023-04-19T18:21:05.035Z,1.23
2023-04-19T18:23:31.919Z,0.68
2023-04-19T18:26:01.133Z,1.63
2023-04-19T18:28:30.418Z,0.93
2023-04-19T18:30:57.112Z,1.00
2023-04-19T18:33:25.240Z,0.40
2023-04-19T18:35:53.891Z,0.67
2023-04-19T18:38:20.856Z,2.47
2023-04-19T18:40:48.319Z,0.30
2023-04-19T18:43:15.645Z,2.40
2023-04-19T18:45:42.441Z,2.53
2023-04-19T18:48:09.246Z,2.53
2023-04-19T18:50:38.247Z,1.63
2023-04-19T18:53:05.014Z,3.13
2023-04-19T18:55:31.782Z,2.20
2023-04-19T18:58:01.124Z,2.43
2023-04-19T19:00:28.461Z,1.90
2023-04-19T19:02:57.060Z,2.73
2023-04-19T19:05:24.270Z,2.30
2023-04-19T19:07:52.818Z,1.40
2023-04-19T19:10:22.705Z,2.27
2023-04-19T19:13:00.929Z,2.80
2023-04-19T19:15:27.720Z,2.37
2023-04-19T19:17:54.407Z,2.50
2023-04-19T19:20:21.208Z,2.40
2023-04-19T19:22:48.491Z,2.83
2023-04-19T19:25:16.621Z,2.07
2023-04-19T19:27:58.474Z,2.30
2023-04-19T19:30:33.487Z,2.50
2023-04-19T19:33:00.367Z,2.07
2023-04-19T19:35:27.064Z,2.00
2023-04-19T19:37:53.842Z,2.60
2023-04-19T19:40:22.877Z,0.33
2023-04-19T19:42:49.885Z,1.98
2023-04-19T19:45:17.602Z,1.93
2023-04-19T19:47:48.559Z,1.80
2023-04-19T19:52:46.874Z,3.50
2023-04-19T19:55:13.848Z,0.43
2023-04-19T19:58:14.177Z,1.23
2023-04-19T20:00:45.128Z,1.73
2023-04-19T20:03:13.359Z,1.33
2023-04-19T20:05:40.472Z,2.63
2023-04-19T20:08:09.947Z,2.13
2023-04-19T20:10:37.581Z,1.53
2023-04-19T20:13:08.633Z,2.07
2023-04-19T20:15:36.397Z,1.33
2023-04-19T20:18:03.541Z,2.10
2023-04-19T20:20:33.023Z,1.50
2023-04-19T20:22:59.754Z,1.77
2023-04-19T20:25:26.775Z,1.70
2023-04-19T20:27:54.213Z,1.50
2023-04-19T20:30:22.371Z,1.50
2023-04-19T20:32:50.258Z,1.37
2023-04-19T20:35:17.283Z,1.10
2023-04-19T20:37:44.411Z,1.77
2023-04-19T20:40:13.658Z,1.57
2023-04-19T20:42:40.668Z,1.42
2023-04-19T20:45:09.833Z,1.30
2023-04-19T20:47:38.325Z,1.45
2023-04-19T20:50:05.792Z,1.73
2023-04-19T20:52:32.566Z,1.73
2023-04-19T20:54:59.249Z,2.17
2023-04-19T20:57:25.911Z,2.03
2023-04-19T20:59:52.692Z,1.67
2023-04-19T21:02:19.469Z,1.53
2023-04-19T21:04:47.516Z,1.60
2023-04-19T21:07:14.099Z,1.93
2023-04-19T21:09:41.330Z,1.20
2023-04-19T21:12:08.000Z,2.03
2023-04-19T21:14:34.765Z,1.60
2023-04-19T21:17:01.986Z,1.47
2023-04-19T21:19:28.616Z,2.07
2023-04-19T21:21:56.644Z,2.20
2023-04-19T21:24:23.431Z,3.67
2023-04-19T21:26:50.020Z,4.03
2023-04-19T21:29:16.997Z,3.00
2023-04-19T21:31:44.035Z,2.63
2023-04-19T21:34:11.210Z,4.07
2023-04-19T21:36:37.811Z,1.83
2023-04-19T21:39:06.048Z,3.33
2023-04-19T21:41:32.680Z,2.47
2023-04-19T21:43:59.262Z,2.47
2023-04-19T21:46:25.927Z,3.50
2023-04-19T21:48:54.354Z,2.37
2023-04-19T21:51:22.432Z,1.83
2023-04-19T21:53:49.108Z,2.53
2023-04-19T21:56:17.027Z,2.03
2023-04-19T21:58:43.706Z,1.97
2023-04-19T22:01:10.828Z,2.00
2023-04-19T22:03:37.780Z,2.33
2023-04-19T22:06:04.807Z,2.47
2023-04-19T22:08:33.111Z,2.33
2023-04-19T22:11:00.395Z,2.47
2023-04-19T22:13:30.119Z,1.90
2023-04-19T22:18:24.266Z,1.40
2023-04-19T22:20:51.935Z,2.17
2023-04-19T22:23:18.944Z,1.70
2023-04-19T22:25:45.953Z,1.77
2023-04-19T22:28:12.671Z,3.23
2023-04-19T22:30:40.874Z,2.40
2023-04-19T22:33:07.452Z,2.00
2023-04-19T22:35:34.102Z,1.73
2023-04-19T22:38:00.759Z,2.10
2023-04-19T22:40:27.370Z,1.13
2023-04-19T22:42:53.902Z,4.73
2023-04-19T22:45:20.605Z,2.17
2023-04-19T22:47:48.521Z,1.80
2023-04-19T22:50:15.420Z,2.40
2023-04-19T22:52:42.538Z,3.20
2023-04-19T22:55:10.153Z,1.60
2023-04-19T22:57:36.718Z,1.50
2023-04-19T23:00:05.338Z,1.77
2023-04-19T23:02:32.015Z,1.53
2023-04-19T23:05:00.624Z,1.30
2023-04-19T23:07:28.725Z,2.87
2023-04-19T23:09:56.003Z,1.70
2023-04-19T23:12:22.867Z,1.70
2023-04-19T23:14:50.561Z,1.43
2023-04-19T23:17:17.204Z,1.57
2023-04-19T23:19:43.748Z,2.37
2023-04-19T23:22:11.679Z,1.27
2023-04-19T23:24:38.411Z,1.57
2023-04-19T23:27:04.986Z,1.47
2023-04-19T23:29:31.621Z,2.37
2023-04-19T23:31:58.211Z,1.30
2023-04-19T23:34:24.987Z,2.27
2023-04-19T23:36:51.838Z,1.47
2023-04-19T23:39:20.186Z,2.40
2023-04-19T23:41:46.987Z,1.47
2023-04-19T23:44:13.604Z,1.57
2023-04-19T23:46:40.702Z,2.47
2023-04-19T23:49:08.589Z,1.87
2023-04-19T23:51:36.321Z,2.20
2023-04-19T23:54:02.988Z,1.67
2023-04-19T23:56:30.977Z,1.60
2023-04-19T23:58:57.604Z,1.77
